Latest Weather Observations for Nerriga

IDN60801

Issued at 5:12 pm EST Friday 22 June 2018 (issued every 10 minutes, with the page automatically refreshed every 10 minutes)

About weather observations | Map of weather stations | Latest weather observations for NSW | Other Formats
Station Details ID: 069128 Name: NERRIGA AWS Lat: -35.11 Lon: 150.08 Height: 622.0 m
Data from the previous 72 hours. | See also: Recent months at Nerriga
Date/Time
EST
Temp
°C
App
Temp
°C
Dew
Point
°C
Rel
Hum
%
Delta-T
°C
Wind Press
QNH
hPa
Press
MSL
hPa
Rain since
9am
mm
Dir  Spd
km/h
Gust
km/h
Spd
kts
Gust
kts
22/05:00pm 9.6 5.6 0.8 54 3.7 NNW 11 13 6 7 1025.7 1026.6 0.0
22/04:30pm 11.8 7.9 0.9 47 4.7 NW 11 15 6 8 1025.5 1026.4 0.0
22/04:00pm 13.0 8.7 1.0 44 5.2 NW 13 19 7 10 1025.2 1026.2 0.0
22/03:30pm 13.9 9.6 1.2 42 5.7 NW 13 17 7 9 1025.1 1026.1 0.0
22/03:00pm 13.5 10.3 3.0 49 4.8 NNW 9 13 5 7 1025.2 1026.2 0.0
22/02:30pm 13.4 11.0 4.3 54 4.3 N 6 13 3 7 1025.3 1026.3 0.0
22/02:00pm 12.9 9.5 4.1 55 4.1 NNW 11 17 6 9 1025.6 1026.5 0.0
22/01:30pm 12.1 9.1 3.9 57 3.8 NNW 9 13 5 7 1025.7 1026.6 0.0
22/01:00pm 11.6 8.5 3.4 57 3.7 WNW 9 19 5 10 1026.0 1026.9 0.0
22/12:30pm 9.9 7.3 3.4 64 2.9 WNW 6 9 3 5 1026.5 1027.5 0.0
22/12:00pm 8.9 6.7 3.3 68 2.5 WNW 4 7 2 4 1027.0 1028.0 0.0
22/11:30am 8.3 6.5 3.6 72 2.1 WNW 2 6 1 3 1027.6 1028.5 0.0
22/11:00am 7.2 5.8 3.4 77 1.7 CALM 0 2 0 1 1028.0 1029.0 0.0
22/10:30am 5.3 3.7 2.5 82 1.2 CALM 0 0 0 0 1028.3 1029.3 0.0
22/10:00am 4.5 2.9 2.5 87 0.8 CALM 0 0 0 0 1028.5 1029.5 0.0
22/09:30am 2.0 -0.5 1.3 95 0.3 WNW 4 6 2 3 1028.5 1029.5 0.0
22/09:00am 0.7 -1.3 -0.2 94 0.3 CALM 0 0 0 0 1028.2 1029.2 0.2
22/08:30am -0.6 -2.8 -1.3 95 0.2 CALM 0 0 0 0 1028.0 1029.0 0.2
22/08:00am -1.7 -4.0 -2.1 97 0.1 CALM 0 0 0 0 1028.1 1029.1 0.0
22/07:30am -2.7 -5.1 -3.1 97 0.0 CALM 0 0 0 0 1028.1 1029.1 0.0
22/07:00am -3.2 -5.7 -3.6 97 0.0 CALM 0 0 0 0 1027.7 1028.6 0.0
22/06:30am -2.7 -5.1 -3.1 97 0.0 CALM 0 0 0 0 1027.5 1028.4 0.0
22/06:00am -3.0 -5.8 -3.4 97 0.0 WNW 2 4 1 2 1027.3 1028.2 0.0
22/05:30am -3.4 -6.6 -3.8 97 0.0 WNW 4 6 2 3 1027.2 1028.1 0.0
22/05:00am -3.4 -6.6 -3.7 98 0.0 WNW 4 6 2 3 1027.0 1028.0 0.0
22/04:30am -3.3 -5.8 -3.6 98 0.0 CALM 0 0 0 0 1027.0 1028.0 0.0
22/04:00am -2.5 -4.9 -2.8 98 0.0 CALM 0 0 0 0 1027.2 1028.1 0.0
22/03:30am -1.5 -3.7 -1.8 98 0.0 CALM 0 0 0 0 1027.3 1028.2 0.0
22/03:00am -1.2 -3.4 -1.5 98 0.0 CALM 0 0 0 0 1027.5 1028.4 0.0
22/02:30am -1.4 -3.6 -1.7 98 0.0 CALM 0 0 0 0 1027.6 1028.5 0.0
22/02:00am -1.0 -3.1 -1.1 99 0.0 CALM 0 0 0 0 1027.5 1028.4 0.0
22/01:30am -0.8 -2.9 -1.1 98 0.1 CALM 0 0 0 0 1027.7 1028.6 0.0
22/01:00am -1.9 -5.0 -2.3 97 0.1 WNW 4 6 2 3 1027.9 1028.9 0.0
22/12:30am -0.8 -2.9 -1.1 98 0.1 CALM 0 4 0 2 1028.1 1029.1 0.0
22/12:00am -0.6 -3.5 -0.9 98 0.1 WNW 4 6 2 3 1028.0 1029.0 0.0
 
Date/Time
EST
Temp
°C
App
Temp
°C
Dew
Point
°C
Rel
Hum
%
Delta-T
°C
Wind Press
QNH
hPa
Press
MSL
hPa
Rain since
9am
mm
Dir  Spd
km/h
Gust
km/h
Spd
kts
Gust
kts
21/11:30pm -1.1 -4.5 -1.7 96 0.2 WNW 6 6 3 3 1028.1 1029.1 0.0
21/11:00pm 0.5 -2.6 0.1 97 0.1 WNW 6 7 3 4 1028.1 1029.1 0.0
21/10:30pm 0.4 -1.6 0.0 97 0.2 CALM 0 0 0 0 1028.1 1029.1 0.0
21/10:00pm 0.3 -1.7 -0.1 97 0.1 CALM 0 2 0 1 1028.1 1029.1 0.0
21/09:30pm 0.7 -1.6 0.1 96 0.2 WNW 2 4 1 2 1028.0 1029.0 0.0
21/09:00pm 1.0 -1.7 0.3 95 0.3 WNW 4 4 2 2 1028.1 1029.1 0.0
21/08:30pm 1.2 -0.7 0.3 94 0.3 CALM 0 0 0 0 1028.1 1029.1 0.0
21/08:00pm 1.8 -0.4 1.1 95 0.3 WNW 2 4 1 2 1027.8 1028.7 0.0
21/07:30pm 2.1 -0.5 1.1 93 0.4 WNW 4 4 2 2 1027.8 1028.7 0.0
21/07:00pm 2.1 -0.9 0.9 92 0.5 WNW 6 6 3 3 1027.6 1028.5 0.0
21/06:30pm 3.3 0.8 1.5 88 0.7 WNW 4 6 2 3 1027.5 1028.4 0.0
21/06:00pm 3.5 1.0 1.7 88 0.7 WNW 4 4 2 2 1027.3 1028.2 0.0
21/05:30pm 5.1 3.0 1.9 80 1.3 WNW 2 4 1 2 1026.9 1027.9 0.0
21/05:00pm 7.2 4.4 1.9 69 2.2 WNW 6 7 3 4 1026.8 1027.8 0.0
21/04:30pm 9.1 5.9 0.8 56 3.5 WNW 7 9 4 5 1026.7 1027.7 0.0
21/04:00pm 10.5 7.1 -0.3 47 4.5 WNW 7 11 4 6 1026.5 1027.5 0.0
21/03:30pm 11.7 7.6 -0.4 43 5.1 WNW 11 15 6 8 1026.5 1027.5 0.0
21/03:00pm 11.9 7.5 0.4 45 4.9 NW 13 17 7 9 1026.4 1027.3 0.0
21/02:30pm 12.2 8.2 0.3 44 5.1 WNW 11 17 6 9 1026.2 1027.1 0.0
21/02:00pm 11.8 8.4 4.1 59 3.6 SE 11 15 6 8 1026.5 1027.5 0.0
21/01:30pm 11.1 8.6 3.6 60 3.4 SE 6 11 3 6 1026.7 1027.7 0.0
21/01:00pm 10.6 8.8 5.4 70 2.5 SE 4 6 2 3 1027.0 1028.0 0.0
21/12:30pm 9.0 7.6 5.6 79 1.6 SE 2 4 1 2 1027.5 1028.4 0.0
21/12:00pm 7.1 5.7 5.3 88 0.8 SE 2 4 1 2 1028.0 1029.0 0.0
21/11:30am 6.0 4.7 5.9 99 0.0 SE 2 6 1 3 1028.4 1029.4 0.0
21/11:00am 4.3 2.6 4.2 99 0.0 SE 2 6 1 3 1028.7 1029.7 0.0
21/10:30am 3.4 1.2 3.4 100 0.0 SE 4 6 2 3 1029.0 1029.9 0.0
21/10:00am 2.5 0.9 2.5 100 0.0 CALM 0 0 0 0 1029.1 1030.0 0.0
21/09:30am 1.1 -0.7 1.1 100 0.0 CALM 0 0 0 0 1029.1 1030.0 0.0
21/09:00am 0.1 -1.9 0.1 100 0.0 CALM 0 0 0 0 1029.1 1030.0 0.4
21/08:30am -0.7 -2.8 -0.7 100 0.0 CALM 0 0 0 0 1029.1 1030.0 0.2
21/08:00am -1.2 -3.4 -1.2 100 0.0 CALM 0 0 0 0 1028.7 1029.7 0.2
21/07:30am -1.4 -3.6 -1.4 100 0.0 CALM 0 0 0 0 1028.5 1029.5 0.2
21/07:00am -1.1 -3.2 -1.1 100 0.0 CALM 0 0 0 0 1028.3 1029.3 0.2
21/06:30am -1.1 -3.2 -1.1 100 0.0 CALM 0 0 0 0 1028.0 1029.0 0.2
21/06:00am -0.9 -3.0 -0.9 100 0.0 CALM 0 2 0 1 1027.7 1028.6 0.2
21/05:30am -1.0 -4.3 -1.0 100 0.0 SE 6 7 3 4 1027.4 1028.3 0.2
21/05:00am -0.8 -3.7 -0.8 100 0.0 SE 4 4 2 2 1027.2 1028.1 0.2
21/04:30am -1.1 -3.2 -1.1 100 0.0 CALM 0 0 0 0 1027.2 1028.1 0.2
21/04:00am -0.5 -3.3 -0.5 100 0.0 SE 4 4 2 2 1027.2 1028.1 0.2
21/03:30am -0.8 -4.0 -0.8 100 0.0 SE 6 7 3 4 1027.3 1028.2 0.2
21/03:00am -0.6 -3.8 -0.6 100 0.0 SE 6 7 3 4 1027.3 1028.2 0.2
21/02:30am 1.0 -0.8 1.0 100 0.0 CALM 0 0 0 0 1027.2 1028.1 0.2
21/02:00am 0.8 -1.1 0.8 100 0.0 CALM 0 0 0 0 1027.3 1028.2 0.2
21/01:30am 1.1 -0.7 1.1 100 0.0 CALM 0 0 0 0 1027.5 1028.4 0.2
21/01:00am 0.1 -1.9 0.0 99 0.0 CALM 0 0 0 0 1027.6 1028.5 0.0
21/12:30am 0.5 -2.2 0.4 99 0.0 SE 4 4 2 2 1027.6 1028.5 0.0
21/12:00am 1.9 -0.5 1.9 100 0.0 SE 4 6 2 3 1027.8 1028.7 0.0
 
Date/Time
EST
Temp
°C
App
Temp
°C
Dew
Point
°C
Rel
Hum
%
Delta-T
°C
Wind Press
QNH
hPa
Press
MSL
hPa
Rain since
9am
mm
Dir  Spd
km/h
Gust
km/h
Spd
kts
Gust
kts
20/11:30pm 1.1 -2.1 0.8 98 0.1 SE 7 7 4 4 1027.9 1028.9 0.0
20/11:00pm 3.0 0.7 2.9 99 0.0 SE 4 6 2 3 1028.0 1029.0 0.0
20/10:30pm 2.7 0.7 2.4 98 0.1 SE 2 6 1 3 1028.0 1029.0 0.0
20/10:00pm 2.8 1.2 2.4 97 0.2 CALM 0 0 0 0 1028.1 1029.1 0.0
20/09:30pm 3.9 2.5 3.5 97 0.2 CALM 0 0 0 0 1028.3 1029.3 0.0
20/09:00pm 4.5 3.2 4.1 97 0.2 CALM 0 0 0 0 1028.2 1029.2 0.0
20/08:30pm 4.5 3.2 3.9 96 0.3 CALM 0 2 0 1 1028.3 1029.3 0.0
20/08:00pm 4.7 2.0 3.8 94 0.4 SE 7 9 4 5 1028.5 1029.5 0.0
20/07:30pm 6.8 5.4 5.3 90 0.7 SE 2 6 1 3 1028.4 1029.4 0.0
20/07:00pm 7.5 5.3 5.3 86 1.0 SE 6 6 3 3 1028.2 1029.2 0.0
20/06:30pm 8.4 7.0 5.7 83 1.3 SE 2 4 1 2 1028.1 1029.1 0.0
20/06:00pm 8.5 6.8 6.0 84 1.2 SE 4 7 2 4 1028.1 1029.1 0.0
20/05:30pm 9.1 7.3 5.3 77 1.8 SE 4 6 2 3 1027.9 1028.9 0.0
20/05:00pm 9.2 7.1 5.8 79 1.6 SE 6 6 3 3 1027.8 1028.7 0.0
20/04:30pm 9.5 6.7 5.3 75 2.0 SE 9 13 5 7 1027.6 1028.5 0.0
20/04:00pm 9.7 7.8 4.7 71 2.3 SE 4 4 2 2 1027.6 1028.5 0.0
20/03:30pm 10.2 7.7 4.6 68 2.6 SE 7 11 4 6 1027.4 1028.3 0.0
20/03:00pm 10.7 7.0 4.4 65 2.9 SE 13 17 7 9 1027.3 1028.2 0.0
20/02:30pm 12.4 10.8 4.6 59 3.7 SE 2 6 1 3 1027.2 1028.1 0.0
20/02:00pm 10.4 6.9 3.4 62 3.2 SE 11 13 6 7 1027.3 1028.2 0.0
20/01:30pm 10.7 8.0 3.7 62 3.2 SE 7 13 4 7 1027.5 1028.4 0.0
20/01:00pm 10.8 8.3 4.9 67 2.8 SE 7 15 4 8 1027.6 1028.5 0.0
20/12:30pm 10.4 7.3 3.7 63 3.1 SE 9 13 5 7 1027.8 1028.7 0.0
20/12:00pm 9.9 8.0 5.1 72 2.2 SSE 4 9 2 5 1028.2 1029.2 0.0
20/11:30am 10.2 7.2 5.8 74 2.1 SSE 11 15 6 8 1028.6 1029.6 0.0
20/11:00am 8.9 7.3 7.8 93 0.5 SSE 6 9 3 5 1029.0 1029.9 0.0
20/10:30am 8.3 6.0 7.4 94 0.4 SSE 9 13 5 7 1029.1 1030.0 0.0
20/10:00am 7.9 6.2 7.5 97 0.2 SSE 6 9 3 5 1028.9 1029.8 0.0
20/09:30am 7.8 5.9 7.4 97 0.2 SSE 7 11 4 6 1029.0 1029.9 0.0
20/09:00am 7.6 7.0 7.2 97 0.2 CALM 0 0 0 0 1028.4 1029.4 7.4
20/08:30am 7.3 6.2 7.0 98 0.1 SSE 2 4 1 2 1028.3 1029.3 7.4
20/08:00am 6.7 4.7 6.4 98 0.1 SSE 6 7 3 4 1027.7 1028.6 7.4
20/07:30am 5.9 3.2 5.6 98 0.1 SSE 9 17 5 9 1027.5 1028.4 7.4
20/07:00am 5.6 4.5 5.2 97 0.2 CALM 0 0 0 0 1027.8 1028.7 7.4
20/06:30am 5.7 3.9 5.3 97 0.2 SSE 4 9 2 5 1027.7 1028.6 7.4
20/06:00am 5.7 3.5 5.3 97 0.2 SSE 6 6 3 3 1027.7 1028.6 7.4
20/05:30am 5.9 4.1 5.5 97 0.2 SSE 4 7 2 4 1027.6 1028.5 7.4
20/05:00am 5.5 3.0 4.9 96 0.3 SSE 7 11 4 6 1027.7 1028.6 7.4
20/04:30am 5.9 3.2 5.6 98 0.1 S 9 13 5 7 1028.0 1029.0 7.4
20/04:00am 6.2 3.2 6.1 99 0.0 S 11 13 6 7 1027.9 1028.9 7.4
20/03:30am 7.1 5.3 7.0 99 0.0 S 6 7 3 4 1028.0 1029.0 7.4
20/03:00am 7.7 5.8 7.6 99 0.0 S 7 9 4 5 1027.8 1028.7 7.4
20/02:30am 7.8 5.6 7.8 100 0.0 S 9 15 5 8 1027.8 1028.7 7.0
20/02:00am 7.8 6.0 7.8 100 0.0 S 7 13 4 7 1027.8 1028.7 5.8
20/01:30am 7.9 6.1 7.8 99 0.0 S 7 9 4 5 1027.2 1028.1 4.4
20/01:00am 8.0 6.3 7.7 98 0.1 S 6 11 3 6 1026.9 1027.9 3.8
20/12:30am 8.2 5.5 7.4 95 0.4 S 11 17 6 9 1026.7 1027.7 3.4
20/12:00am 8.3 4.5 7.4 94 0.4 SSE 17 24 9 13 1026.5 1027.5 3.4
 
Date/Time
EST
Temp
°C
App
Temp
°C
Dew
Point
°C
Rel
Hum
%
Delta-T
°C
Wind Press
QNH
hPa
Press
MSL
hPa
Rain since
9am
mm
Dir  Spd
km/h
Gust
km/h
Spd
kts
Gust
kts
19/11:30pm 8.2 5.5 7.3 94 0.4 SSE 11 17 6 9 1026.4 1027.3 3.2
19/11:00pm 8.1 4.2 7.2 94 0.4 SSE 17 22 9 12 1026.4 1027.3 3.2
19/10:30pm 8.3 4.7 6.9 91 0.7 SSE 15 28 8 15 1026.5 1027.5 3.2
19/10:00pm 8.1 5.3 7.0 93 0.5 SSE 11 22 6 12 1026.5 1027.5 3.2
19/09:30pm 8.0 4.8 6.9 93 0.5 SSE 13 20 7 11 1026.4 1027.3 3.2
19/09:00pm 8.0 3.5 7.1 94 0.4 SSE 20 30 11 16 1026.2 1027.1 3.2
19/08:30pm 7.8 2.2 7.1 95 0.3 SSE 26 39 14 21 1026.1 1027.0 3.2
19/08:00pm 7.8 2.9 7.1 95 0.3 SSE 22 30 12 16 1026.5 1027.5 3.2
19/07:30pm 7.7 3.4 7.1 96 0.3 SSE 19 30 10 16 1026.8 1027.8 3.0
19/07:00pm 7.7 4.2 7.1 96 0.3 S 15 22 8 12 1026.7 1027.7 3.0
19/06:30pm 7.6 4.4 7.0 96 0.3 S 13 19 7 10 1026.5 1027.5 2.8
19/06:00pm 7.8 5.0 7.1 95 0.3 S 11 15 6 8 1026.0 1026.9 2.4
19/05:30pm 8.0 4.5 7.1 94 0.4 S 15 22 8 12 1025.7 1026.6 2.2

Other Formats:

Comma delimited format used in spreadsheet applications
http://www.bom.gov.au/fwo/IDN60801/IDN60801.94943.axf

JavaScript Object Notation format (JSON) in row-major order
http://www.bom.gov.au/fwo/IDN60801/IDN60801.94943.json